Terminal Aerodrome Forecast
Issued by NWS

Home | Current Version | Previous Version | Text Only | Print | Product List | Glossary On
Versions: 1 2 3 4 5 6 7 8 9 10 11 12 13 14 15
000
FTUS46 KPDT 230328 AAA
TAFYKM
TAF AMD
KYKM 230328Z 2303/2324 28010G22KT P6SM VCSH SCT060 BKN100
     FM230500 33005KT P6SM OVC100
     FM231600 33008KT P6SM BKN140
     FM231900 01010G20KT P6SM SCT140=

USA.gov is the U.S. government's official web portal to all federal, state and local government web resources and services.